createdAt,value
2022-12-26T00:00:21.711Z,100931.28
2022-12-26T00:00:54.337Z,100921.66
2022-12-26T00:01:28.823Z,100927.78
2022-12-26T00:02:03.783Z,100921.66
2022-12-26T00:02:36.413Z,100924.13
2022-12-26T00:03:08.715Z,100931.28
2022-12-26T00:03:41.807Z,100925.78
2022-12-26T00:04:50.839Z,100927.63
2022-12-26T00:05:12.636Z,100921.22
2022-12-26T00:05:44.738Z,100922.88
2022-12-26T00:06:21.393Z,100928.19
2022-12-26T00:06:53.692Z,100928.19
2022-12-26T00:07:25.849Z,100936.00
2022-12-26T00:08:00.621Z,100933.13
2022-12-26T00:08:32.782Z,100931.50
2022-12-26T00:09:06.566Z,100928.63
2022-12-26T00:09:41.327Z,100922.47
2022-12-26T00:10:13.493Z,100926.38
2022-12-26T00:10:45.666Z,100927.19
2022-12-26T00:11:21.249Z,100926.38
2022-12-26T00:11:53.306Z,100924.72
2022-12-26T00:12:28.053Z,100920.41
2022-12-26T00:13:38.208Z,100919.56
2022-12-26T00:13:54.769Z,100923.28
2022-12-26T00:14:29.452Z,100925.09
2022-12-26T00:15:01.583Z,100924.09
2022-12-26T00:15:33.754Z,100937.19
2022-12-26T00:16:08.031Z,100925.53
2022-12-26T00:16:43.858Z,100928.19
2022-12-26T00:17:15.958Z,100920.22
2022-12-26T00:17:48.645Z,100923.53
2022-12-26T00:18:23.439Z,100933.13
2022-12-26T00:18:56.173Z,100930.47
2022-12-26T00:19:33.370Z,100928.63
2022-12-26T00:20:06.632Z,100929.84
2022-12-26T00:20:38.906Z,100930.03
2022-12-26T00:21:13.553Z,100927.38
2022-12-26T00:21:48.264Z,100931.84
2022-12-26T00:22:20.416Z,100926.53
2022-12-26T00:22:54.767Z,100931.03
2022-12-26T00:23:27.103Z,100925.09
2022-12-26T00:24:02.429Z,100931.25
2022-12-26T00:24:34.706Z,100928.59
2022-12-26T00:25:08.012Z,100925.09
2022-12-26T00:25:42.738Z,100929.59
2022-12-26T00:26:17.223Z,100926.13
2022-12-26T00:26:49.299Z,100925.28
2022-12-26T00:27:23.976Z,100927.94
2022-12-26T00:27:56.076Z,100929.78
2022-12-26T00:28:28.977Z,100924.47
2022-12-26T00:29:03.633Z,100922.03
2022-12-26T00:29:35.721Z,100929.16
2022-12-26T00:30:09.676Z,100926.50
2022-12-26T00:30:44.400Z,100922.19
2022-12-26T00:31:18.709Z,100923.22
2022-12-26T00:31:50.898Z,100929.53
2022-12-26T00:32:25.655Z,100929.34
2022-12-26T00:32:57.797Z,100930.19
2022-12-26T00:33:29.975Z,100924.69
2022-12-26T00:34:05.498Z,100927.13
2022-12-26T00:34:41.169Z,100921.81
2022-12-26T00:35:13.302Z,100923.47
2022-12-26T00:35:45.450Z,100921.63
2022-12-26T00:36:22.352Z,100925.94
2022-12-26T00:36:54.652Z,100925.09
2022-12-26T00:37:26.727Z,100928.59
2022-12-26T00:38:01.473Z,100924.28
2022-12-26T00:38:34.891Z,100925.09
2022-12-26T00:39:09.589Z,100928.59
2022-12-26T00:39:41.656Z,100925.09
2022-12-26T00:40:13.752Z,100926.75
2022-12-26T00:40:45.861Z,100922.22
2022-12-26T00:41:22.437Z,100928.59
2022-12-26T00:41:54.533Z,100927.75
2022-12-26T00:42:26.627Z,100925.09
2022-12-26T00:43:01.613Z,100926.13
2022-12-26T00:43:33.890Z,100924.69
2022-12-26T00:44:06.241Z,100924.69
2022-12-26T00:44:40.951Z,100926.50
2022-12-26T00:45:13.035Z,100927.34
2022-12-26T00:45:45.677Z,100931.63
2022-12-26T00:46:20.955Z,100925.69
2022-12-26T00:46:53.185Z,100928.53
2022-12-26T00:47:25.266Z,100926.88
2022-12-26T00:47:57.548Z,100931.19
2022-12-26T00:48:32.656Z,100931.19
2022-12-26T00:49:04.736Z,100928.72
2022-12-26T00:50:13.292Z,100921.78
2022-12-26T00:50:35.069Z,100919.47
2022-12-26T00:51:07.466Z,100929.09
2022-12-26T00:51:39.582Z,100934.41
2022-12-26T00:52:14.261Z,100932.59
2022-12-26T00:52:46.324Z,100924.59
2022-12-26T00:53:18.604Z,100932.59
2022-12-26T00:53:53.399Z,100929.09
2022-12-26T00:54:25.493Z,100934.41
2022-12-26T00:54:57.570Z,100930.09
2022-12-26T00:55:30.631Z,100941.78
2022-12-26T00:56:05.829Z,100936.66
2022-12-26T00:56:37.998Z,100936.81
2022-12-26T00:57:12.665Z,100936.81
2022-12-26T00:57:44.765Z,100938.66
2022-12-26T00:58:16.827Z,100937.03
2022-12-26T00:58:51.486Z,100937.03
2022-12-26T00:59:24.041Z,100933.56
2022-12-26T00:59:56.146Z,100933.56
2022-12-26T01:00:28.353Z,100935.38
2022-12-26T01:01:09.129Z,100936.22
2022-12-26T01:01:41.755Z,100938.22
2022-12-26T01:02:28.889Z,100929.06
2022-12-26T01:03:01.122Z,100932.91
2022-12-26T01:03:35.945Z,100938.22
2022-12-26T01:04:08.014Z,100923.94
2022-12-26T01:04:42.879Z,100940.53
2022-12-26T01:05:17.585Z,100932.53
2022-12-26T01:05:51.201Z,100934.16
2022-12-26T01:06:25.915Z,100933.34
2022-12-26T01:06:58.036Z,100938.66
2022-12-26T01:07:33.353Z,100927.22
2022-12-26T01:08:19.737Z,100947.47
2022-12-26T01:08:54.695Z,100937.88
2022-12-26T01:09:29.342Z,100939.47
2022-12-26T01:10:01.460Z,100939.47
2022-12-26T01:10:33.534Z,100938.66
2022-12-26T01:11:08.429Z,100937.88
2022-12-26T01:11:43.098Z,100937.88
2022-12-26T01:12:15.238Z,100940.53
2022-12-26T01:12:47.403Z,100942.34
2022-12-26T01:13:19.691Z,100944.19
2022-12-26T01:13:54.335Z,100937.22
2022-12-26T01:14:26.430Z,100940.88
2022-12-26T01:14:59.407Z,100943.53
2022-12-26T01:15:31.504Z,100936.41
2022-12-26T01:16:07.803Z,100943.34
2022-12-26T01:16:41.196Z,100939.88
2022-12-26T01:17:13.333Z,100938.03
2022-12-26T01:17:45.427Z,100936.22
2022-12-26T01:18:20.328Z,100936.00
2022-12-26T01:18:52.408Z,100941.31
2022-12-26T01:19:27.072Z,100939.47
2022-12-26T01:20:02.360Z,100941.97
2022-12-26T01:20:34.477Z,100942.97
2022-12-26T01:21:11.936Z,100939.31
2022-12-26T01:21:43.979Z,100942.13
2022-12-26T01:22:16.086Z,100939.31
2022-12-26T01:22:48.165Z,100939.13
2022-12-26T01:23:22.828Z,100944.44
2022-12-26T01:23:55.395Z,100939.13
2022-12-26T01:24:27.456Z,100940.94
2022-12-26T01:25:02.346Z,100946.28
2022-12-26T01:25:34.489Z,100939.31
2022-12-26T01:26:15.340Z,100948.94
2022-12-26T01:26:55.038Z,100945.63
2022-12-26T01:27:27.170Z,100940.31
2022-12-26T01:27:59.259Z,100941.97
2022-12-26T01:28:31.351Z,100946.28
2022-12-26T01:29:06.017Z,100938.28
2022-12-26T01:29:38.142Z,100946.28
2022-12-26T01:30:11.592Z,100940.13
2022-12-26T01:30:43.672Z,100937.47
2022-12-26T01:31:18.846Z,100936.81
2022-12-26T01:31:50.988Z,100948.50
2022-12-26T01:32:23.531Z,100946.44
2022-12-26T01:32:56.132Z,100937.66
2022-12-26T01:33:30.787Z,100940.31
2022-12-26T01:34:02.983Z,100939.31
2022-12-26T01:34:35.107Z,100941.97
2022-12-26T01:35:12.754Z,100941.13
2022-12-26T01:35:52.714Z,100939.47
2022-12-26T01:36:24.872Z,100939.47
2022-12-26T01:36:59.631Z,100935.00
2022-12-26T01:37:31.742Z,100938.66
2022-12-26T01:38:03.860Z,100935.22
2022-12-26T01:38:38.825Z,100932.53
2022-12-26T01:39:10.892Z,100936.81
2022-12-26T01:39:43.206Z,100938.47
2022-12-26T01:40:17.942Z,100939.31
2022-12-26T01:41:10.653Z,100936.81
2022-12-26T01:41:42.760Z,100929.25
2022-12-26T01:42:20.217Z,100935.22
2022-12-26T01:42:52.296Z,100935.22
2022-12-26T01:43:24.371Z,100938.47
2022-12-26T01:44:01.374Z,100926.84
2022-12-26T01:45:05.098Z,100936.00
2022-12-26T01:45:40.313Z,100923.09
2022-12-26T01:46:12.886Z,100930.25
2022-12-26T01:46:46.087Z,100933.72
2022-12-26T01:47:22.546Z,100933.72
2022-12-26T01:48:00.874Z,100932.91
2022-12-26T01:48:38.599Z,100926.97
2022-12-26T01:49:16.312Z,100930.66
2022-12-26T01:49:53.082Z,100935.13
2022-12-26T01:50:43.898Z,100932.66
2022-12-26T01:51:17.687Z,100931.84
2022-12-26T01:51:53.619Z,100930.81
2022-12-26T01:52:38.186Z,100931.66
2022-12-26T01:53:15.046Z,100925.50
2022-12-26T01:53:50.309Z,100928.00
2022-12-26T01:54:40.773Z,100929.81
2022-12-26T01:55:18.179Z,100926.50
2022-12-26T01:55:57.715Z,100928.38
2022-12-26T01:56:35.876Z,100928.38
2022-12-26T01:57:12.921Z,100925.91
2022-12-26T01:57:50.677Z,100925.91
2022-12-26T01:58:30.110Z,100924.25
2022-12-26T01:59:06.746Z,100920.97
2022-12-26T01:59:43.590Z,100929.56
2022-12-26T02:00:16.702Z,100926.09
2022-12-26T02:00:49.534Z,100925.91
2022-12-26T02:01:28.825Z,100932.03
2022-12-26T02:02:01.648Z,100931.03
2022-12-26T02:02:57.115Z,100924.69
2022-12-26T02:03:44.405Z,100926.72
2022-12-26T02:04:36.139Z,100933.06
2022-12-26T02:05:23.860Z,100933.22
2022-12-26T02:06:01.024Z,100926.09
2022-12-26T02:06:34.554Z,100927.56
2022-12-26T02:07:09.544Z,100924.50
2022-12-26T02:07:45.074Z,100928.00
2022-12-26T02:08:21.896Z,100929.63
2022-12-26T02:08:57.235Z,100932.91
2022-12-26T02:09:29.777Z,100932.09
2022-12-26T02:10:02.766Z,100929.25
2022-12-26T02:10:44.559Z,100937.03
2022-12-26T02:11:23.105Z,100929.25
2022-12-26T02:12:34.165Z,100928.41
2022-12-26T02:12:55.926Z,100926.34
2022-12-26T02:13:32.205Z,100929.63
2022-12-26T02:14:07.122Z,100929.63
2022-12-26T02:14:40.823Z,100930.47
2022-12-26T02:15:18.408Z,100930.25
2022-12-26T02:15:52.150Z,100932.09
2022-12-26T02:16:25.819Z,100932.09
2022-12-26T02:17:00.760Z,100941.88
2022-12-26T02:17:32.926Z,100929.44
2022-12-26T02:18:05.209Z,100932.91
2022-12-26T02:18:37.443Z,100938.22
2022-12-26T02:19:24.758Z,100939.06
2022-12-26T02:20:03.839Z,100938.63
2022-12-26T02:20:43.539Z,100937.78
2022-12-26T02:21:41.798Z,100935.31
2022-12-26T02:22:38.006Z,100944.31
2022-12-26T02:23:48.267Z,100941.03
2022-12-26T02:24:53.183Z,100937.72
2022-12-26T02:25:55.010Z,100939.75
2022-12-26T02:26:52.902Z,100932.34
2022-12-26T02:27:47.824Z,100936.84
2022-12-26T02:28:45.830Z,100934.38
2022-12-26T02:29:59.270Z,100938.06
2022-12-26T02:30:42.017Z,100931.09
2022-12-26T02:31:21.552Z,100926.41
2022-12-26T02:32:03.348Z,100934.19
2022-12-26T02:33:05.407Z,100930.91
2022-12-26T02:33:50.702Z,100933.56
2022-12-26T02:34:33.488Z,100934.38
2022-12-26T02:35:15.448Z,100929.06
2022-12-26T02:36:19.907Z,100922.13
2022-12-26T02:37:18.936Z,100925.97
2022-12-26T02:38:04.557Z,100929.63
2022-12-26T02:38:50.446Z,100924.31
2022-12-26T02:39:46.627Z,100925.97
2022-12-26T02:40:30.421Z,100924.53
2022-12-26T02:41:17.387Z,100922.47
2022-12-26T02:41:58.338Z,100923.53
2022-12-26T02:42:43.339Z,100918.81
2022-12-26T02:43:25.984Z,100919.81
2022-12-26T02:44:24.309Z,100923.31
2022-12-26T02:45:18.587Z,100912.06
2022-12-26T02:46:20.267Z,100924.53
2022-12-26T02:47:05.798Z,100919.22
2022-12-26T02:47:47.078Z,100914.72
2022-12-26T02:48:30.516Z,100921.66
2022-12-26T02:49:06.452Z,100917.16
2022-12-26T02:50:11.686Z,100916.16
2022-12-26T02:51:22.387Z,100914.72
2022-12-26T02:52:26.344Z,100918.38
2022-12-26T02:53:26.370Z,100918.38
2022-12-26T02:54:21.870Z,100913.06
2022-12-26T02:55:18.999Z,100914.72
2022-12-26T02:56:11.588Z,100909.41
2022-12-26T02:57:05.193Z,100909.41
2022-12-26T02:58:01.244Z,100910.41
2022-12-26T02:58:55.289Z,100902.63
2022-12-26T02:59:54.208Z,100907.94
2022-12-26T03:00:44.952Z,100910.81
2022-12-26T03:01:42.300Z,100911.41
2022-12-26T03:02:40.059Z,100907.75
2022-12-26T03:03:32.138Z,100905.09
2022-12-26T03:04:24.617Z,100905.09
2022-12-26T03:05:13.686Z,100905.94
2022-12-26T03:06:05.163Z,100907.56
2022-12-26T03:06:55.196Z,100911.03
2022-12-26T03:07:46.482Z,100910.03
2022-12-26T03:08:40.769Z,100913.50
2022-12-26T03:09:32.466Z,100913.50
2022-12-26T03:10:29.570Z,100913.31
2022-12-26T03:11:17.093Z,100908.19
2022-12-26T03:12:08.124Z,100914.16
2022-12-26T03:12:59.971Z,100910.66
2022-12-26T03:13:38.932Z,100915.34
2022-12-26T03:14:17.735Z,100914.34
2022-12-26T03:14:54.901Z,100921.28
2022-12-26T03:15:53.011Z,100915.16
2022-12-26T03:16:44.061Z,100911.03
2022-12-26T03:17:25.913Z,100912.91
2022-12-26T03:18:04.010Z,100915.56
2022-12-26T03:18:57.911Z,100920.03
2022-12-26T03:19:36.302Z,100907.94
2022-12-26T03:20:13.689Z,100909.41
2022-12-26T03:20:47.239Z,100911.03
2022-12-26T03:21:28.874Z,100909.03
2022-12-26T03:22:23.982Z,100914.34
2022-12-26T03:23:02.722Z,100917.16
2022-12-26T03:23:40.263Z,100910.03
2022-12-26T03:24:16.147Z,100914.34
2022-12-26T03:25:04.502Z,100910.66
2022-12-26T03:25:56.251Z,100909.03
2022-12-26T03:26:47.628Z,100914.34
2022-12-26T03:27:19.844Z,100912.69
2022-12-26T03:27:53.241Z,100909.84
2022-12-26T03:28:25.919Z,100912.31
2022-12-26T03:29:21.021Z,100905.16
2022-12-26T03:30:08.291Z,100915.97
2022-12-26T03:30:49.614Z,100918.00
2022-12-26T03:31:24.080Z,100919.66
2022-12-26T03:31:59.507Z,100920.28
2022-12-26T03:32:47.340Z,100917.63
2022-12-26T03:33:41.016Z,100915.97
2022-12-26T03:34:19.349Z,100916.81
2022-12-26T03:34:53.126Z,100921.09
2022-12-26T03:35:30.539Z,100917.44
2022-12-26T03:36:04.715Z,100926.22
2022-12-26T03:36:49.564Z,100925.41
2022-12-26T03:37:48.648Z,100929.28
2022-12-26T03:38:25.907Z,100925.53
2022-12-26T03:39:09.549Z,100928.19
2022-12-26T03:40:06.897Z,100932.84
2022-12-26T03:41:10.574Z,100937.13
2022-12-26T03:42:10.598Z,100934.63
2022-12-26T03:43:05.401Z,100927.88
2022-12-26T03:44:17.984Z,100937.03
2022-12-26T03:45:11.430Z,100940.91
2022-12-26T03:46:07.217Z,100939.25
2022-12-26T03:47:06.523Z,100937.81
2022-12-26T03:48:05.660Z,100944.94
2022-12-26T03:49:02.125Z,100945.78
2022-12-26T03:49:55.702Z,100944.75
2022-12-26T03:50:50.396Z,100947.41
2022-12-26T03:51:47.895Z,100948.03
2022-12-26T03:52:43.987Z,100947.03
2022-12-26T03:53:38.512Z,100953.34
2022-12-26T03:54:30.066Z,100950.88
2022-12-26T03:55:24.473Z,100951.72
2022-12-26T03:56:16.764Z,100949.88
2022-12-26T03:57:10.437Z,100945.56
2022-12-26T03:58:05.456Z,100945.56
2022-12-26T03:58:58.765Z,100944.56
2022-12-26T03:59:51.186Z,100944.56
2022-12-26T04:00:39.319Z,100948.03
2022-12-26T04:01:31.920Z,100949.88
2022-12-26T04:02:22.453Z,100940.25
2022-12-26T04:03:17.153Z,100940.66
2022-12-26T04:04:05.969Z,100941.47
2022-12-26T04:05:11.022Z,100936.78
2022-12-26T04:06:01.796Z,100942.28
2022-12-26T04:06:57.536Z,100939.63
2022-12-26T04:07:56.593Z,100950.06
2022-12-26T04:09:05.247Z,100950.88
2022-12-26T04:09:57.907Z,100945.56
2022-12-26T04:10:48.564Z,100949.06
2022-12-26T04:11:39.150Z,100940.66
2022-12-26T04:12:31.833Z,100944.75
2022-12-26T04:13:30.754Z,100945.56
2022-12-26T04:14:23.196Z,100945.56
2022-12-26T04:15:15.896Z,100943.91
2022-12-26T04:16:09.625Z,100941.91
2022-12-26T04:17:00.557Z,100949.69
2022-12-26T04:17:53.107Z,100947.22
2022-12-26T04:18:49.758Z,100941.09
2022-12-26T04:19:46.105Z,100950.88
2022-12-26T04:20:25.097Z,100939.44
2022-12-26T04:21:30.469Z,100953.34
2022-12-26T04:22:22.275Z,100953.75
2022-12-26T04:23:13.255Z,100951.09
2022-12-26T04:24:04.032Z,100951.28
2022-12-26T04:24:58.187Z,100947.78
2022-12-26T04:25:51.673Z,100947.97
2022-12-26T04:26:45.051Z,100945.31
2022-12-26T04:27:36.898Z,100946.34
2022-12-26T04:28:24.398Z,100945.50
2022-12-26T04:29:11.928Z,100947.97
2022-12-26T04:29:59.487Z,100942.84
2022-12-26T04:30:49.680Z,100945.31
2022-12-26T04:31:43.322Z,100944.69
2022-12-26T04:32:36.145Z,100940.19
2022-12-26T04:33:32.721Z,100950.81
2022-12-26T04:34:27.994Z,100947.53
2022-12-26T04:35:23.098Z,100949.19
2022-12-26T04:36:17.218Z,100955.50
2022-12-26T04:37:09.474Z,100952.22
2022-12-26T04:38:00.353Z,100943.41
2022-12-26T04:38:55.985Z,100955.66
2022-12-26T04:39:47.621Z,100953.22
2022-12-26T04:40:39.698Z,100951.56
2022-12-26T04:41:28.999Z,100956.06
2022-12-26T04:42:17.079Z,100951.56
2022-12-26T04:43:46.974Z,100958.53
2022-12-26T04:44:07.648Z,100959.72
2022-12-26T04:44:40.717Z,100953.41
2022-12-26T04:45:14.141Z,100959.16
2022-12-26T04:45:48.970Z,100956.13
2022-12-26T04:46:25.035Z,100956.97
2022-12-26T04:46:57.325Z,100947.97
2022-12-26T04:47:33.536Z,100947.59
2022-12-26T04:48:21.176Z,100951.88
2022-12-26T04:49:09.991Z,100952.09
2022-12-26T04:50:00.807Z,100958.59
2022-12-26T04:50:32.968Z,100956.97
2022-12-26T04:51:06.226Z,100963.72
2022-12-26T04:51:38.522Z,100956.56
2022-12-26T04:52:16.237Z,100955.38
2022-12-26T04:53:00.536Z,100959.84
2022-12-26T04:53:33.130Z,100958.22
2022-12-26T04:54:09.101Z,100955.38
2022-12-26T04:54:41.442Z,100956.19
2022-12-26T04:55:13.755Z,100954.19
2022-12-26T04:55:48.807Z,100958.50
2022-12-26T04:56:20.904Z,100960.13
2022-12-26T04:56:53.301Z,100958.28
2022-12-26T04:57:25.453Z,100958.09
2022-12-26T04:58:00.701Z,100965.06
2022-12-26T04:58:32.771Z,100963.22
2022-12-26T04:59:04.856Z,100962.22
2022-12-26T04:59:39.565Z,100965.69
2022-12-26T05:00:13.724Z,100969.34
2022-12-26T05:00:45.816Z,100964.03
2022-12-26T05:01:33.483Z,100961.38
2022-12-26T05:02:20.795Z,100962.78
2022-12-26T05:03:10.228Z,100964.81
2022-12-26T05:04:00.501Z,100973.97
2022-12-26T05:04:47.745Z,100967.81
2022-12-26T05:05:52.214Z,100970.47
2022-12-26T05:06:39.430Z,100967.38
2022-12-26T05:07:31.994Z,100965.53
2022-12-26T05:08:19.295Z,100965.53
2022-12-26T05:09:09.265Z,100968.22
2022-12-26T05:09:43.993Z,100973.06
2022-12-26T05:10:19.856Z,100972.06
2022-12-26T05:10:51.998Z,100971.88
2022-12-26T05:11:27.503Z,100973.50
2022-12-26T05:11:59.655Z,100981.47
2022-12-26T05:12:31.762Z,100983.13
2022-12-26T05:13:03.839Z,100979.66
2022-12-26T05:13:38.571Z,100982.31
2022-12-26T05:14:10.640Z,100984.13
2022-12-26T05:14:42.786Z,100984.78
2022-12-26T05:15:18.207Z,100982.13
2022-12-26T05:16:05.363Z,100981.31
2022-12-26T05:16:52.609Z,100980.88
2022-12-26T05:17:39.723Z,100986.34
2022-12-26T05:18:38.663Z,100990.19
2022-12-26T05:19:27.602Z,100992.41
2022-12-26T05:20:14.758Z,101002.19
2022-12-26T05:21:04.767Z,100996.88
2022-12-26T05:21:52.581Z,101000.56
2022-12-26T05:22:42.222Z,100984.63
2022-12-26T05:23:33.744Z,100999.75
2022-12-26T05:24:37.649Z,101000.56
2022-12-26T05:25:31.165Z,101001.56
2022-12-26T05:26:19.639Z,101004.41
2022-12-26T05:27:06.858Z,101009.72
2022-12-26T05:27:56.265Z,101010.53
2022-12-26T05:28:45.969Z,101010.53
2022-12-26T05:29:18.025Z,101014.03
2022-12-26T05:29:50.857Z,101015.47
2022-12-26T05:30:26.273Z,101014.47
2022-12-26T05:30:58.803Z,101014.66
2022-12-26T05:31:35.930Z,101011.00
2022-12-26T05:32:10.981Z,101015.69
2022-12-26T05:32:58.125Z,101019.16
2022-12-26T05:33:45.773Z,101013.84
2022-12-26T05:34:20.909Z,101016.50
2022-12-26T05:34:53.019Z,101017.13
2022-12-26T05:35:25.207Z,101012.00
2022-12-26T05:35:59.916Z,101018.78
2022-12-26T05:36:38.951Z,101018.94
2022-12-26T05:37:11.108Z,101015.47
2022-12-26T05:37:43.280Z,101014.47
2022-12-26T05:38:15.384Z,101020.59
2022-12-26T05:38:51.542Z,101021.59
2022-12-26T05:39:23.843Z,101014.28
2022-12-26T05:39:56.561Z,101018.59
2022-12-26T05:40:28.639Z,101022.06
2022-12-26T05:41:03.300Z,101016.56
2022-12-26T05:41:35.767Z,101013.09
2022-12-26T05:42:07.858Z,101012.91
2022-12-26T05:42:42.541Z,101011.09
2022-12-26T05:43:14.649Z,101013.75
2022-12-26T05:43:46.742Z,101007.59
2022-12-26T05:44:30.731Z,101015.56
2022-12-26T05:45:11.370Z,101010.81
2022-12-26T05:45:43.706Z,101004.69
2022-12-26T05:46:20.440Z,101008.16
2022-12-26T05:46:52.654Z,101016.13
2022-12-26T05:47:24.780Z,101008.97
2022-12-26T05:48:01.845Z,101006.94
2022-12-26T05:48:34.205Z,101009.59
2022-12-26T05:49:06.732Z,101000.63
2022-12-26T05:49:41.503Z,100992.50
2022-12-26T05:50:13.680Z,100996.81
2022-12-26T05:50:45.917Z,101000.25
2022-12-26T05:51:23.171Z,100994.75
2022-12-26T05:51:55.465Z,101000.06
2022-12-26T05:52:27.580Z,100997.41
2022-12-26T05:53:04.090Z,100999.06
2022-12-26T05:53:36.869Z,100997.41
2022-12-26T05:54:11.560Z,100994.75
2022-12-26T05:54:43.703Z,100997.81
2022-12-26T05:55:16.053Z,100996.81
2022-12-26T05:55:50.711Z,100994.16
2022-12-26T05:56:23.177Z,101007.44
2022-12-26T05:56:58.003Z,101002.09
2022-12-26T05:57:30.064Z,100997.59
2022-12-26T05:58:02.319Z,100990.47
2022-12-26T05:58:37.123Z,100995.59
2022-12-26T05:59:09.907Z,100999.91
2022-12-26T05:59:41.984Z,100997.25
2022-12-26T06:00:18.112Z,100996.25
2022-12-26T06:00:50.173Z,100995.19
2022-12-26T06:01:23.546Z,100991.53
2022-12-26T06:01:58.448Z,100999.34
2022-12-26T06:02:31.353Z,100994.66
2022-12-26T06:03:03.823Z,101003.44
2022-12-26T06:03:37.132Z,101007.75
2022-12-26T06:04:11.900Z,101003.44
2022-12-26T06:04:43.991Z,101000.78
2022-12-26T06:05:16.325Z,100995.69
2022-12-26T06:05:51.011Z,101000.16
2022-12-26T06:06:26.456Z,100996.69
2022-12-26T06:06:58.914Z,100995.03
2022-12-26T06:07:33.882Z,100994.38
2022-12-26T06:08:06.767Z,100994.19
2022-12-26T06:08:39.401Z,100993.38
2022-12-26T06:09:14.060Z,100995.03
2022-12-26T06:09:46.113Z,100995.84
2022-12-26T06:10:18.459Z,100991.38
2022-12-26T06:10:54.407Z,100990.53
2022-12-26T06:11:27.492Z,100987.06
2022-12-26T06:11:59.570Z,100996.69
2022-12-26T06:12:31.647Z,100996.69
2022-12-26T06:13:06.326Z,100992.19
2022-12-26T06:13:39.634Z,100986.06
2022-12-26T06:14:11.753Z,100986.69
2022-12-26T06:14:46.410Z,100982.41
2022-12-26T06:15:18.628Z,100986.69
2022-12-26T06:15:50.788Z,100986.69
2022-12-26T06:16:25.813Z,100988.31
2022-12-26T06:16:58.003Z,100980.34
2022-12-26T06:17:30.131Z,100987.31
2022-12-26T06:18:04.785Z,100988.16
2022-12-26T06:18:37.412Z,100987.31
2022-12-26T06:19:09.600Z,100984.47
2022-12-26T06:19:46.881Z,100988.59
2022-12-26T06:20:19.332Z,100989.59
2022-12-26T06:20:51.489Z,100988.59
2022-12-26T06:21:28.762Z,100993.91
2022-12-26T06:22:00.968Z,100984.28
2022-12-26T06:22:33.093Z,100978.78
2022-12-26T06:23:07.765Z,100990.25
2022-12-26T06:23:40.256Z,100984.94
2022-12-26T06:24:14.090Z,100988.41
2022-12-26T06:24:48.786Z,100990.25
2022-12-26T06:25:20.919Z,100992.91
2022-12-26T06:25:56.521Z,100991.88
2022-12-26T06:26:31.214Z,100988.59
2022-12-26T06:27:03.515Z,100984.28
2022-12-26T06:27:35.589Z,100993.06
2022-12-26T06:28:07.747Z,100991.06
2022-12-26T06:28:43.458Z,100991.88
2022-12-26T06:29:17.104Z,100988.59
2022-12-26T06:29:52.851Z,100996.38
2022-12-26T06:30:24.942Z,100983.09
2022-12-26T06:31:06.167Z,100985.38
2022-12-26T06:31:38.430Z,100990.69
2022-12-26T06:32:10.589Z,100994.16
2022-12-26T06:32:45.273Z,100993.97
2022-12-26T06:33:17.461Z,100992.78
2022-12-26T06:33:51.667Z,100989.13
2022-12-26T06:34:27.786Z,100986.47
2022-12-26T06:34:59.936Z,100985.44
2022-12-26T06:35:34.342Z,100987.06
2022-12-26T06:36:12.249Z,100992.38
2022-12-26T06:36:46.966Z,100991.56
2022-12-26T06:37:19.135Z,100987.28
2022-12-26T06:37:53.848Z,100990.75
2022-12-26T06:38:25.953Z,100989.94
2022-12-26T06:38:58.505Z,100982.75
2022-12-26T06:39:33.222Z,100978.28
2022-12-26T06:40:07.000Z,100980.09
2022-12-26T06:40:40.205Z,100981.16
2022-12-26T06:41:18.023Z,100979.09
2022-12-26T06:41:50.560Z,100981.75
2022-12-26T06:42:22.695Z,100981.75
2022-12-26T06:42:57.424Z,100981.59
2022-12-26T06:43:29.518Z,100983.22
2022-12-26T06:44:01.913Z,100976.09
2022-12-26T06:44:36.611Z,100975.88
2022-12-26T06:45:10.281Z,100971.41
2022-12-26T06:45:42.623Z,100971.22
2022-12-26T06:46:20.527Z,100972.84
2022-12-26T06:46:52.692Z,100977.34
2022-12-26T06:47:25.028Z,100977.16
2022-12-26T06:47:57.126Z,100968.16
2022-12-26T06:48:32.342Z,100969.81
2022-12-26T06:49:06.603Z,100968.00
2022-12-26T06:49:38.708Z,100969.59
2022-12-26T06:50:14.243Z,100972.25
2022-12-26T06:50:46.342Z,100971.47
2022-12-26T06:51:20.984Z,100966.78
2022-12-26T06:51:58.226Z,100972.09
2022-12-26T06:52:30.387Z,100975.56
2022-12-26T06:53:02.492Z,100975.38
2022-12-26T06:53:35.160Z,100969.25
2022-12-26T06:54:09.968Z,100970.06
2022-12-26T06:54:42.074Z,100964.75
2022-12-26T06:55:14.276Z,100970.69
2022-12-26T06:55:46.400Z,100974.19
2022-12-26T06:56:23.689Z,100970.69
2022-12-26T06:56:55.758Z,100966.38
2022-12-26T06:57:27.863Z,100970.91
2022-12-26T06:58:02.528Z,100972.72
2022-12-26T06:58:34.697Z,100972.91
2022-12-26T06:59:07.187Z,100971.91
2022-12-26T06:59:41.861Z,100976.41
2022-12-26T07:00:15.753Z,100970.25
2022-12-26T07:00:47.937Z,100968.59
2022-12-26T07:01:23.539Z,100970.25
2022-12-26T07:01:55.996Z,100969.44
2022-12-26T07:02:28.161Z,100964.94
2022-12-26T07:03:02.903Z,100968.41
2022-12-26T07:03:35.585Z,100964.94
2022-12-26T07:04:07.739Z,100970.25
2022-12-26T07:04:42.400Z,100967.59
2022-12-26T07:05:14.561Z,100965.94
2022-12-26T07:05:47.177Z,100963.28
2022-12-26T07:06:26.070Z,100969.25
2022-12-26T07:07:00.724Z,100971.25
2022-12-26T07:07:32.983Z,100966.78
2022-12-26T07:08:08.105Z,100970.25
2022-12-26T07:08:40.228Z,100968.81
2022-12-26T07:09:16.938Z,100967.59
2022-12-26T07:09:51.626Z,100972.25
2022-12-26T07:10:23.758Z,100974.91
2022-12-26T07:10:55.825Z,100970.66
2022-12-26T07:11:32.169Z,100967.16
2022-12-26T07:12:04.676Z,100964.88
2022-12-26T07:12:36.822Z,100966.91
2022-12-26T07:13:11.513Z,100964.25
2022-12-26T07:13:44.050Z,100963.41
2022-12-26T07:14:18.318Z,100962.59
2022-12-26T07:14:58.005Z,100959.75
2022-12-26T07:15:33.367Z,100964.63
2022-12-26T07:16:05.784Z,100951.34
2022-12-26T07:16:42.778Z,100957.66
2022-12-26T07:17:15.036Z,100951.53
2022-12-26T07:17:47.253Z,100954.19
2022-12-26T07:18:19.536Z,100954.38
2022-12-26T07:18:55.231Z,100956.84
2022-12-26T07:19:27.325Z,100954.38
2022-12-26T07:19:59.459Z,100954.56
2022-12-26T07:20:34.227Z,100958.84
2022-12-26T07:21:07.335Z,100951.72
2022-12-26T07:21:41.253Z,100952.34
2022-12-26T07:22:18.677Z,100957.50
2022-12-26T07:22:50.763Z,100960.16
2022-12-26T07:23:23.091Z,100959.13
2022-12-26T07:23:58.770Z,100954.44
2022-12-26T07:24:31.349Z,100955.63
2022-12-26T07:25:03.782Z,100956.28
2022-12-26T07:25:40.125Z,100957.09
2022-12-26T07:26:12.362Z,100953.44
2022-12-26T07:26:45.149Z,100957.72
2022-12-26T07:27:19.901Z,100955.06
2022-12-26T07:27:54.070Z,100954.22
2022-12-26T07:28:26.417Z,100949.75